Time;durP1;ratioP1;P1;durP2;ratioP2;P2;SDS_P1;SDS_P2;PMS_P1;PMS_P2;Temp;Humidity;BMP_temperature;BMP_pressure;BME280_temperature;BME280_humidity;BME280_pressure;Samples;Min_cycle;Max_cycle;Signal;HPM_P1;HPM_P2
2022/12/14 00:01:26;;;;;;;18.98;11.20;;;;;;;-3.24;87.92;100633.97;6221013;22;20021;-80
2022/12/14 00:03:54;;;;;;;19.05;9.80;;;;;;;-3.24;88.00;100639.16;6220666;22;20186;-80
2022/12/14 00:06:30;;;;;;;16.00;9.55;;;;;;;-3.23;87.74;100627.66;6221180;22;20092;-79
2022/12/14 00:09:02;;;;;;;18.70;10.50;;;;;;;-3.22;87.66;100634.38;6220546;22;20021;-79
2022/12/14 00:11:29;;;;;;;15.50;9.35;;;;;;;-3.21;87.89;100628.06;6220145;22;20047;-80
2022/12/14 00:13:58;;;;;;;17.70;10.00;;;;;;;-3.17;87.71;100622.88;6220788;22;20398;-79
2022/12/14 00:16:27;;;;;;;20.08;9.80;;;;;;;-3.15;87.55;100628.50;6220604;22;20057;-80
2022/12/14 00:18:57;;;;;;;16.90;9.30;;;;;;;-3.15;87.06;100631.09;6219852;23;20025;-79
2022/12/14 00:21:25;;;;;;;19.65;9.15;;;;;;;-3.17;86.74;100630.69;6220795;23;20021;-80
2022/12/14 00:23:53;;;;;;;17.90;10.00;;;;;;;-3.21;86.81;100617.66;6220360;22;20099;-79
2022/12/14 00:26:24;;;;;;;17.95;9.13;;;;;;;-3.22;86.85;100618.00;6220210;22;20029;-80
2022/12/14 00:28:53;;;;;;;19.83;10.07;;;;;;;-3.21;87.14;100615.03;6219070;23;20367;-79
2022/12/14 00:31:20;;;;;;;17.92;9.88;;;;;;;-3.16;87.12;100621.78;6220765;22;20020;-79
2022/12/14 00:33:47;;;;;;;17.10;10.10;;;;;;;-3.15;87.19;100623.28;6220370;22;20127;-79
2022/12/14 00:36:14;;;;;;;18.10;10.05;;;;;;;-3.16;86.73;100606.16;6220611;22;20025;-79
2022/12/14 00:38:41;;;;;;;22.83;9.80;;;;;;;-3.18;87.00;100614.31;6220087;23;20104;-79
2022/12/14 00:41:09;;;;;;;19.90;10.10;;;;;;;-3.20;86.52;100608.72;6220549;22;20036;-79
2022/12/14 00:43:36;;;;;;;19.33;10.13;;;;;;;-3.18;86.72;100610.97;6220531;22;20092;-79
2022/12/14 00:46:04;;;;;;;19.88;9.10;;;;;;;-3.19;86.32;100604.25;6220742;22;20418;-79
2022/12/14 00:48:31;;;;;;;19.23;9.77;;;;;;;-3.19;86.30;100591.22;6220800;22;20447;-79
2022/12/14 00:50:58;;;;;;;19.15;9.40;;;;;;;-3.21;86.25;100588.25;6220804;23;20013;-79
2022/12/14 00:53:25;;;;;;;20.08;10.05;;;;;;;-3.21;86.32;100583.06;6220945;22;20045;-79
2022/12/14 00:55:51;;;;;;;19.30;9.30;;;;;;;-3.19;86.15;100589.38;6219486;23;20021;-79
2022/12/14 00:58:21;;;;;;;16.75;9.77;;;;;;;-3.18;86.04;100587.53;6219419;23;20020;-79
2022/12/14 01:01:04;;;;;;;24.20;10.15;;;;;;;-3.17;86.29;100583.81;6220215;22;20447;-79
2022/12/14 01:03:30;;;;;;;21.20;9.43;;;;;;;-3.18;86.22;100577.88;6220944;22;20024;-79
2022/12/14 01:05:58;;;;;;;17.27;9.52;;;;;;;-3.17;85.78;100573.41;6218625;23;20076;-79
2022/12/14 01:08:24;;;;;;;18.85;9.60;;;;;;;-3.17;85.83;100565.59;6218745;23;20021;-79
2022/12/14 01:10:51;;;;;;;25.98;9.82;;;;;;;-3.18;85.96;100574.50;6219655;23;20093;-79
2022/12/14 01:13:18;;;;;;;19.25;10.10;;;;;;;-3.18;85.91;100577.13;6220663;22;20018;-80
2022/12/14 01:15:44;;;;;;;17.15;10.18;;;;;;;-3.18;85.91;100569.31;6220204;22;20025;-80
2022/12/14 01:18:11;;;;;;;17.30;9.68;;;;;;;-3.18;85.69;100569.31;6220237;23;20017;-79
2022/12/14 01:20:38;;;;;;;18.27;10.00;;;;;;;-3.17;85.14;100566.34;6218759;23;20017;-80
2022/12/14 01:23:04;;;;;;;19.42;9.80;;;;;;;-3.17;85.26;100563.75;6220530;23;20351;-80
2022/12/14 01:25:31;;;;;;;17.40;9.70;;;;;;;-3.18;85.17;100561.50;6218583;23;20023;-80
2022/12/14 01:27:57;;;;;;;19.88;9.45;;;;;;;-3.17;85.21;100563.75;6220642;23;20048;-79
2022/12/14 01:30:24;;;;;;;16.58;9.13;;;;;;;-3.17;85.23;100563.75;6220764;23;20168;-80
2022/12/14 01:32:50;;;;;;;18.08;10.27;;;;;;;-3.15;85.08;100558.19;6220146;22;20009;-80
2022/12/14 01:35:17;;;;;;;23.13;10.80;;;;;;;-3.16;85.22;100554.09;6220533;23;20020;-80
2022/12/14 01:37:43;;;;;;;16.42;9.35;;;;;;;-3.16;85.10;100569.72;6220216;22;20402;-81
2022/12/14 01:40:10;;;;;;;21.30;9.38;;;;;;;-3.18;85.02;100551.81;6218004;23;20304;-80
2022/12/14 01:42:37;;;;;;;20.15;10.48;;;;;;;-3.18;84.74;100558.88;6220295;22;20013;-81
2022/12/14 01:45:05;;;;;;;20.88;10.00;;;;;;;-3.19;84.77;100560.75;6218899;23;20024;-80
2022/12/14 01:47:38;;;;;;;20.30;9.88;;;;;;;-3.18;84.99;100564.09;6244351;22;20020;-80
2022/12/14 01:50:19;;;;;;;18.13;10.07;;;;;;;-3.18;84.88;100561.50;6220608;22;20017;-80
2022/12/14 01:52:48;;;;;;;19.73;9.82;;;;;;;-3.17;84.53;100560.38;6217800;23;20021;-80
2022/12/14 01:55:37;;;;;;;18.02;9.73;;;;;;;-3.20;84.79;100555.91;6220433;22;21906;-80
2022/12/14 01:58:11;;;;;;;17.42;9.80;;;;;;;-3.21;84.37;100551.81;6219046;23;20184;-80
2022/12/14 02:00:38;;;;;;;16.10;8.95;;;;;;;-3.22;84.25;100547.69;6218924;23;20023;-80
2022/12/14 02:03:09;;;;;;;19.17;10.68;;;;;;;-3.22;84.11;100547.69;6220475;22;20017;-80
2022/12/14 02:05:41;;;;;;;17.88;9.50;;;;;;;-3.20;84.81;100542.88;6218459;23;20084;-80
2022/12/14 02:08:07;;;;;;;;;;;;;;;-3.20;84.48;100546.22;6215873;23;20017;-80
2022/12/14 02:10:35;;;;;;;13.73;8.15;;;;;;;-3.17;84.70;100539.56;6219115;22;19920;-80
2022/12/14 02:13:08;;;;;;;15.90;8.38;;;;;;;-3.10;84.37;100539.66;6218730;23;20010;-80
2022/12/14 02:15:37;;;;;;;15.30;9.18;;;;;;;-3.12;84.37;100529.59;6217616;23;20025;-79
2022/12/14 02:18:08;;;;;;;17.50;9.90;;;;;;;-3.12;84.39;100534.06;6218525;22;20073;-80
2022/12/14 02:20:45;;;;;;;17.60;10.17;;;;;;;-3.11;84.25;100533.72;6218036;23;20032;-80
2022/12/14 02:23:39;;;;;;;20.23;10.13;;;;;;;-3.10;84.43;100530.00;6218097;23;20021;-79
2022/12/14 02:26:08;;;;;;;20.08;9.30;;;;;;;-3.11;83.96;100531.09;6220244;23;20478;-80
2022/12/14 02:28:56;;;;;;;19.52;8.77;;;;;;;-3.12;84.12;100536.66;6220133;23;20025;-80
2022/12/14 02:32:03;;;;;;;16.60;9.73;;;;;;;-3.13;84.40;100533.31;6220497;22;20154;-80
2022/12/14 02:34:37;;;;;;;18.88;9.77;;;;;;;-3.14;84.14;100531.06;6218507;23;20017;-79
2022/12/14 02:37:21;;;;;;;13.65;8.38;;;;;;;-3.18;84.38;100528.41;6219975;22;20045;-79
2022/12/14 02:40:05;;;;;;;17.77;10.32;;;;;;;-3.20;84.08;100522.06;6219972;22;20013;-79
2022/12/14 02:42:50;;;;;;;19.60;9.07;;;;;;;-3.25;84.20;100522.34;6243882;22;20021;-79
2022/12/14 02:45:26;;;;;;;14.10;8.43;;;;;;;-3.26;84.20;100526.06;6218993;23;20020;-80
2022/12/14 02:48:11;;;;;;;13.25;8.18;;;;;;;-3.31;83.99;100513.34;6193349;23;20028;-79
2022/12/14 02:50:45;;;;;;;18.77;8.70;;;;;;;-3.36;83.72;100517.00;6219598;22;20065;-80
2022/12/14 02:53:25;;;;;;;19.42;9.02;;;;;;;-3.36;83.62;100517.00;6193375;23;20455;-79
2022/12/14 02:55:57;;;;;;;14.45;9.05;;;;;;;-3.37;83.84;100520.69;6193066;23;20025;-79
2022/12/14 02:58:31;;;;;;;;;;;;;;;-3.38;84.16;100511.38;6218995;23;20024;-79
2022/12/14 03:00:59;;;;;;;13.13;7.93;;;;;;;-3.42;84.09;100513.94;6220046;22;19920;-79
2022/12/14 03:03:26;;;;;;;13.13;8.25;;;;;;;-3.43;83.90;100511.69;6220032;22;20133;-80
2022/12/14 03:05:57;;;;;;;16.52;9.05;;;;;;;-3.47;84.07;100508.28;6218784;22;20181;-79
2022/12/14 03:08:26;;;;;;;16.90;9.35;;;;;;;-3.51;83.91;100502.25;6220067;23;20025;-80
2022/12/14 03:11:05;;;;;;;15.52;9.05;;;;;;;-3.54;83.90;100503.69;6217422;23;20426;-80
2022/12/14 03:13:46;;;;;;;15.63;8.57;;;;;;;-3.55;83.87;100496.25;6218386;23;20072;-79
2022/12/14 03:16:20;;;;;;;17.60;8.82;;;;;;;-3.54;83.72;100488.09;6219629;22;20044;-80
2022/12/14 03:18:53;;;;;;;19.58;8.60;;;;;;;-3.56;83.66;100482.47;6218671;22;20017;-79
2022/12/14 03:21:35;;;;;;;17.42;8.90;;;;;;;-3.55;83.77;100478.78;6218599;23;20048;-79
2022/12/14 03:24:11;;;;;;;14.35;8.82;;;;;;;-3.50;83.70;100482.94;6219523;23;20021;-79
2022/12/14 03:27:01;;;;;;;19.30;10.07;;;;;;;-3.48;83.88;100472.94;6218888;23;20021;-80
2022/12/14 03:29:34;;;;;;;13.05;8.45;;;;;;;-3.49;83.50;100471.44;6194531;23;20031;-79
2022/12/14 03:32:11;;;;;;;14.27;8.90;;;;;;;-3.52;83.69;100469.53;6221215;23;20020;-79
2022/12/14 03:34:50;;;;;;;17.52;8.77;;;;;;;-3.52;83.32;100459.13;6220174;22;20063;-80
2022/12/14 03:37:29;;;;;;;16.23;8.48;;;;;;;-3.49;83.60;100458.41;6220912;22;20021;-79
2022/12/14 03:39:56;;;;;;;16.17;8.48;;;;;;;-3.47;83.33;100453.63;6218904;23;20025;-80
2022/12/14 03:42:59;;;;;;;13.65;8.27;;;;;;;-3.50;83.54;100457.66;6220887;23;20010;-80
2022/12/14 03:45:35;;;;;;;17.45;8.63;;;;;;;-3.54;83.55;100449.06;6206076;23;20108;-79
2022/12/14 03:48:30;;;;;;;16.63;8.75;;;;;;;-3.55;83.57;100450.16;6219517;23;20413;-80
2022/12/14 03:51:05;;;;;;;15.00;8.85;;;;;;;-3.60;83.58;100455.69;6219732;22;20470;-79
2022/12/14 03:53:46;;;;;;;15.05;7.93;;;;;;;-3.63;83.52;100447.81;6221070;22;20044;-79
2022/12/14 03:56:43;;;;;;;14.70;8.43;;;;;;;-3.71;83.28;100449.56;6221086;22;20025;-81
2022/12/14 03:59:24;;;;;;;14.07;8.27;;;;;;;-3.75;83.59;100452.13;6219615;23;20029;-80
2022/12/14 04:02:06;;;;;;;14.93;8.80;;;;;;;-3.81;83.42;100456.09;6220474;22;20024;-79
2022/12/14 04:04:58;;;;;;;15.18;8.77;;;;;;;-3.86;83.70;100448.59;6220280;22;20013;-79
2022/12/14 04:07:40;;;;;;;12.75;7.85;;;;;;;-3.88;83.84;100442.97;6219408;23;20009;-80
2022/12/14 04:18:58;;;;;;;16.38;8.30;;;;;;;-4.08;83.85;100442.31;6217703;23;20076;-80
2022/12/14 04:21:26;;;;;;;13.05;7.47;;;;;;;-4.11;83.77;100429.25;6219191;23;20513;-80
2022/12/14 04:26:55;;;;;;;12.48;8.30;;;;;;;-4.15;84.01;100420.66;6220572;22;20096;-79
2022/12/14 04:32:19;;;;;;;20.15;8.18;;;;;;;-4.24;84.17;100409.72;6218803;23;20051;-80
2022/12/14 04:34:51;;;;;;;13.60;8.27;;;;;;;-4.29;84.08;100421.16;6220386;23;20104;-80
2022/12/14 04:37:21;;;;;;;17.25;9.18;;;;;;;-4.35;84.44;100412.13;6220810;22;20021;-80
2022/12/14 04:39:56;;;;;;;15.75;8.77;;;;;;;-4.41;84.59;100413.53;6220627;22;20017;-80
2022/12/14 04:42:29;;;;;;;13.55;7.78;;;;;;;-4.50;84.67;100411.16;6220654;22;20055;-80
2022/12/14 04:45:02;;;;;;;15.60;8.02;;;;;;;-4.57;84.59;100411.03;6218999;23;20076;-80
2022/12/14 04:47:34;;;;;;;15.07;7.97;;;;;;;-4.60;84.55;100406.53;6220064;22;20414;-80
2022/12/14 04:50:14;;;;;;;14.48;8.70;;;;;;;-4.64;84.48;100400.50;6194053;23;20017;-80
2022/12/14 04:52:52;;;;;;;13.43;8.13;;;;;;;-4.65;84.74;100401.59;6218567;23;20140;-80
2022/12/14 04:55:24;;;;;;;13.85;7.78;;;;;;;-4.66;85.00;100401.94;6193948;23;20025;-79
2022/12/14 04:58:03;;;;;;;17.38;8.10;;;;;;;-4.66;84.84;100409.75;6220434;22;20052;-80
2022/12/14 05:00:34;;;;;;;14.93;7.03;;;;;;;-4.68;85.08;100407.50;6219003;23;20020;-80
2022/12/14 05:03:22;;;;;;;15.50;7.80;;;;;;;-4.71;84.76;100395.94;6193385;23;20052;-80
2022/12/14 05:06:01;;;;;;;11.80;7.68;;;;;;;-4.73;84.92;100395.53;6220264;23;20027;-80
2022/12/14 05:08:49;;;;;;;15.85;8.30;;;;;;;-4.74;84.97;100394.03;6220826;23;20024;-80
2022/12/14 05:11:25;;;;;;;13.50;8.32;;;;;;;-4.71;85.22;100398.53;6219202;23;20489;-80
2022/12/14 05:14:19;;;;;;;13.38;8.48;;;;;;;-4.72;85.44;100391.84;6197568;23;20024;-80
2022/12/14 05:16:48;;;;;;;13.00;7.60;;;;;;;-4.72;85.29;100391.84;6219528;22;20398;-80
2022/12/14 05:19:15;;;;;;;12.18;8.38;;;;;;;-4.72;85.36;100391.84;6219941;22;20024;-80
2022/12/14 05:21:47;;;;;;;15.38;7.82;;;;;;;-4.72;85.39;100398.88;6218744;23;20126;-80
2022/12/14 05:24:15;;;;;;;12.95;7.43;;;;;;;-4.70;85.28;100394.84;6218383;23;20427;-80
2022/12/14 05:26:42;;;;;;;21.90;8.27;;;;;;;-4.67;85.20;100388.22;6193241;23;20112;-80
2022/12/14 05:29:09;;;;;;;16.20;9.18;;;;;;;-4.67;85.15;100383.03;6220165;22;20017;-80
2022/12/14 05:31:36;;;;;;;15.77;8.60;;;;;;;-4.68;85.13;100381.50;6217461;23;20021;-80
2022/12/14 05:34:02;;;;;;;19.40;9.60;;;;;;;-4.67;84.96;100383.03;6218498;23;20454;-80
2022/12/14 05:36:29;;;;;;;19.95;9.05;;;;;;;-4.67;85.08;100390.06;6193117;23;20366;-80
2022/12/14 05:38:55;;;;;;;12.88;7.93;;;;;;;-4.66;nan;100384.53;6218144;23;20067;-80
2022/12/14 05:41:22;;;;;;;20.65;8.50;;;;;;;-4.68;85.14;100384.13;6220031;23;20088;-80
2022/12/14 05:43:49;;;;;;;15.40;8.30;;;;;;;-4.70;85.15;100388.91;6219670;22;20017;-80
2022/12/14 05:46:15;;;;;;;12.75;8.10;;;;;;;-4.70;85.17;100387.06;6217520;23;20494;-80
2022/12/14 05:48:42;;;;;;;13.00;7.70;;;;;;;-4.67;84.98;100388.22;6219595;22;20064;-80
2022/12/14 05:51:15;;;;;;;15.65;8.65;;;;;;;-4.68;84.76;100385.97;6195058;23;20096;-80
2022/12/14 05:53:41;;;;;;;13.15;8.05;;;;;;;-4.72;85.24;100386.66;6217979;23;20451;-80
2022/12/14 05:56:09;;;;;;;15.13;8.40;;;;;;;-4.68;84.85;100380.75;6192877;23;20359;-80
2022/12/14 05:58:36;;;;;;;14.05;7.88;;;;;;;-4.70;84.96;100384.47;6218130;23;20466;-80
2022/12/14 06:01:06;;;;;;;14.23;7.82;;;;;;;-4.72;84.72;100376.25;6217934;23;20052;-80
2022/12/14 06:03:33;;;;;;;17.27;9.18;;;;;;;-4.71;84.41;100377.00;6220224;22;20013;-80
2022/12/14 06:06:05;;;;;;;19.20;8.43;;;;;;;-4.69;84.72;100369.63;6218158;23;20352;-80
2022/12/14 06:08:40;;;;;;;14.15;7.50;;;;;;;-4.65;84.35;100364.50;6220012;23;20017;-80
2022/12/14 06:11:24;;;;;;;12.95;7.97;;;;;;;-4.66;84.21;100361.16;6218636;23;20068;-80
2022/12/14 06:13:51;;;;;;;17.25;8.05;;;;;;;-4.68;84.33;100357.38;6217448;23;20013;-80
2022/12/14 06:16:20;;;;;;;16.35;8.38;;;;;;;-4.71;84.15;100361.41;6220103;22;20037;-80
2022/12/14 06:18:52;;;;;;;13.65;8.05;;;;;;;-4.76;84.18;100359.09;6219658;22;20406;-80
2022/12/14 06:21:22;;;;;;;12.75;7.88;;;;;;;-4.78;84.11;100361.28;6220589;22;20108;-80
2022/12/14 06:23:49;;;;;;;14.18;8.25;;;;;;;-4.83;84.00;100359.75;6219874;23;20017;-80
2022/12/14 06:26:16;;;;;;;15.02;7.93;;;;;;;-4.87;83.91;100360.78;6220234;23;20135;-80
2022/12/14 06:28:43;;;;;;;13.80;8.50;;;;;;;-4.92;84.01;100368.84;6219028;22;20049;-80
2022/12/14 06:31:21;;;;;;;15.43;9.13;;;;;;;-4.97;84.25;100361.34;6218748;23;20425;-80
2022/12/14 06:33:48;;;;;;;19.17;9.25;;;;;;;-5.02;84.08;100357.16;6219581;22;20021;-80
2022/12/14 06:36:22;;;;;;;16.13;8.93;;;;;;;-5.06;84.04;100361.53;6218249;23;20514;-79
2022/12/14 06:38:53;;;;;;;17.33;9.38;;;;;;;-5.11;84.09;100354.03;6217618;23;20043;-80
2022/12/14 06:41:21;;;;;;;15.57;8.55;;;;;;;-5.15;84.13;100359.16;6220261;23;20422;-80
2022/12/14 06:43:48;;;;;;;16.92;7.88;;;;;;;-5.18;83.74;100356.47;6217770;23;20403;-80
2022/12/14 06:46:18;;;;;;;15.15;8.40;;;;;;;-5.22;84.04;100356.44;6217542;23;20384;-84
2022/12/14 06:48:51;;;;;;;18.48;9.35;;;;;;;-5.26;83.98;100366.00;6220758;23;20023;-86
2022/12/14 06:51:18;;;;;;;13.25;7.13;;;;;;;-5.32;83.79;100364.75;6217296;23;20021;-80
2022/12/14 06:53:45;;;;;;;15.45;8.57;;;;;;;-5.32;84.21;100367.34;6190830;23;20017;-80
2022/12/14 06:56:16;;;;;;;14.98;8.32;;;;;;;-5.37;84.29;100362.44;6217482;22;20025;-87
2022/12/14 06:58:43;;;;;;;16.15;7.88;;;;;;;-5.42;84.13;100366.03;6217519;22;20442;-80
2022/12/14 07:01:12;;;;;;;14.00;8.35;;;;;;;-5.45;84.38;100365.97;6220444;22;20328;-79
2022/12/14 07:03:40;;;;;;;13.98;8.07;;;;;;;-5.45;84.32;100369.31;6218535;23;20021;-80
2022/12/14 07:06:09;;;;;;;15.77;8.48;;;;;;;-5.47;84.27;100370.75;6218876;23;20108;-78
2022/12/14 07:08:37;;;;;;;13.98;7.75;;;;;;;-5.49;84.32;100370.31;6219229;23;20021;-85
2022/12/14 07:11:09;;;;;;;14.65;8.15;;;;;;;-5.50;84.11;100372.16;6219406;23;20491;-87
2022/12/14 07:13:37;;;;;;;17.55;8.77;;;;;;;-5.55;84.10;100371.69;6193452;23;20017;-83
2022/12/14 07:16:05;;;;;;;21.38;9.02;;;;;;;-5.65;84.20;100382.59;6193866;23;20021;-84
2022/12/14 07:18:32;;;;;;;19.73;9.15;;;;;;;-5.72;84.58;100381.34;6218301;23;20017;-81
2022/12/14 07:21:11;;;;;;;18.60;8.65;;;;;;;-5.72;84.64;100383.19;6218895;23;20104;-85
2022/12/14 07:23:40;;;;;;;12.85;7.57;;;;;;;-5.75;84.94;100382.03;6218600;23;20477;-84
2022/12/14 07:26:12;;;;;;;16.23;7.65;;;;;;;-5.76;84.62;100383.13;6218785;23;20178;-83
2022/12/14 07:28:39;;;;;;;12.50;7.25;;;;;;;-5.80;84.30;100389.31;6220821;22;20020;-88
2022/12/14 07:31:11;;;;;;;15.10;7.50;;;;;;;-5.83;84.65;100379.63;6218701;23;20017;-83
2022/12/14 07:33:38;;;;;;;8.50;5.97;;;;;;;-5.80;84.63;100379.69;6220078;22;20429;-82
2022/12/14 07:36:11;;;;;;;14.95;7.43;;;;;;;-5.80;84.72;100374.50;6193215;23;20477;-82
2022/12/14 07:38:40;;;;;;;11.20;7.25;;;;;;;-5.81;84.68;100380.78;6219892;22;20096;-82
2022/12/14 07:41:09;;;;;;;11.80;7.70;;;;;;;-5.83;84.57;100377.78;6217419;23;20013;-86
2022/12/14 07:43:38;;;;;;;16.00;7.45;;;;;;;-5.85;84.71;100379.19;6218194;23;20056;-80
2022/12/14 07:46:07;;;;;;;12.38;6.72;;;;;;;-5.86;84.84;100386.22;6217719;23;20021;-80
2022/12/14 07:48:34;;;;;;;14.23;7.63;;;;;;;-5.90;84.60;100382.81;6193408;23;20017;-82
2022/12/14 07:51:04;;;;;;;12.70;6.88;;;;;;;-5.94;84.67;100379.41;6220247;22;20447;-82
2022/12/14 07:53:31;;;;;;;14.95;7.95;;;;;;;-5.99;84.31;100382.25;6194060;23;20104;-85
2022/12/14 07:56:03;;;;;;;18.58;9.10;;;;;;;-6.02;84.49;100377.75;6220028;23;20726;-87
2022/12/14 07:58:31;;;;;;;17.73;9.40;;;;;;;-6.07;84.49;100386.53;6221931;23;20020;-85
2022/12/14 08:01:09;;;;;;;13.77;7.55;;;;;;;-6.13;84.54;100389.72;6222283;22;20075;-87
2022/12/14 08:03:37;;;;;;;15.60;7.40;;;;;;;-6.21;84.52;100381.00;6221263;23;20052;-89
2022/12/14 08:06:08;;;;;;;14.43;8.13;;;;;;;-6.25;84.46;100382.75;6221213;23;20076;-80
2022/12/14 08:08:35;;;;;;;14.95;8.05;;;;;;;-6.31;84.30;100391.88;6219467;23;20021;-80
2022/12/14 08:11:03;;;;;;;10.52;6.78;;;;;;;-6.31;84.77;100391.13;6218686;23;20048;-80
2022/12/14 08:13:30;;;;;;;22.10;6.95;;;;;;;-6.29;84.27;100388.94;6220505;23;20020;-80
2022/12/14 08:16:03;;;;;;;12.20;7.22;;;;;;;-6.39;83.89;100396.13;6222310;22;20028;-79
2022/12/14 08:18:30;;;;;;;14.13;6.85;;;;;;;-6.38;84.41;100389.84;6221490;22;20075;-79
2022/12/14 08:20:56;;;;;;;11.63;6.35;;;;;;;-6.36;84.68;100394.69;6195037;23;20470;-80
2022/12/14 08:23:23;;;;;;;12.48;6.38;;;;;;;-6.38;84.41;100396.88;6222128;23;20020;-80
2022/12/14 08:25:55;;;;;;;11.35;6.90;;;;;;;-6.45;84.72;100397.47;6221073;22;20393;-80
2022/12/14 08:28:22;;;;;;;11.30;6.22;;;;;;;-6.48;84.63;100398.13;6195220;23;20017;-80
2022/12/14 08:30:49;;;;;;;11.40;6.82;;;;;;;-6.50;84.50;100394.38;6194683;23;20525;-80
2022/12/14 08:33:17;;;;;;;12.88;6.85;;;;;;;-6.48;84.56;100403.31;6194773;23;20076;-80
2022/12/14 08:35:44;;;;;;;12.82;6.85;;;;;;;-6.43;84.90;100403.06;6222908;22;20017;-80
2022/12/14 08:38:10;;;;;;;12.57;7.25;;;;;;;-6.36;84.83;100401.72;6222981;22;20017;-81
2022/12/14 08:40:38;;;;;;;13.35;7.55;;;;;;;-6.33;84.36;100411.41;6219389;23;20451;-80
2022/12/14 08:43:05;;;;;;;17.00;7.80;;;;;;;-6.29;84.84;100415.59;6220620;23;20049;-79
2022/12/14 08:45:32;;;;;;;12.07;7.60;;;;;;;-6.38;84.87;100410.56;6220119;23;20021;-80
2022/12/14 08:48:00;;;;;;;15.35;8.07;;;;;;;-6.40;85.00;100412.75;6195118;23;20017;-80
2022/12/14 08:50:30;;;;;;;11.73;6.72;;;;;;;-6.41;84.79;100420.88;6195346;23;20045;-79
2022/12/14 08:52:57;;;;;;;13.02;8.20;;;;;;;-6.35;85.54;100405.81;6220804;23;20013;-79
2022/12/14 08:55:23;;;;;;;13.07;6.78;;;;;;;-6.27;85.23;100410.09;6219383;23;20092;-79
2022/12/14 08:57:57;;;;;;;13.63;6.53;;;;;;;-6.20;85.31;100411.03;6222002;22;20017;-79
2022/12/14 09:00:23;;;;;;;12.55;7.45;;;;;;;-6.14;85.69;100408.94;6221397;22;20020;-79
2022/12/14 09:02:50;;;;;;;13.00;7.80;;;;;;;-6.10;85.85;100404.59;6221285;23;20017;-79
2022/12/14 09:05:17;;;;;;;12.20;7.63;;;;;;;-6.06;85.72;100403.59;6219590;23;20096;-79
2022/12/14 09:07:43;;;;;;;14.95;8.00;;;;;;;-6.04;86.11;100405.84;6194115;23;20099;-80
2022/12/14 09:10:11;;;;;;;17.63;8.65;;;;;;;-5.99;86.01;100410.00;6221211;22;20021;-79
2022/12/14 09:12:38;;;;;;;14.27;7.55;;;;;;;-5.93;86.24;100413.84;6221249;22;20321;-79
2022/12/14 09:15:06;;;;;;;14.30;8.45;;;;;;;-5.89;85.94;100405.06;6195389;23;20021;-79
2022/12/14 09:17:33;;;;;;;13.38;7.40;;;;;;;-5.86;86.33;100404.38;6220564;23;20023;-79
2022/12/14 09:20:00;;;;;;;20.00;8.20;;;;;;;-5.81;86.46;100404.13;6221619;22;20448;-79
2022/12/14 09:22:27;;;;;;;16.17;8.98;;;;;;;-5.78;86.78;100403.44;6219120;23;20019;-80
2022/12/14 09:24:55;;;;;;;20.50;8.48;;;;;;;-5.72;86.86;100404.69;6219544;23;20104;-80
2022/12/14 09:27:21;;;;;;;15.23;8.40;;;;;;;-5.69;86.81;100408.47;6220352;23;20020;-80
2022/12/14 09:29:49;;;;;;;14.90;8.95;;;;;;;-5.65;87.15;100411.88;6219973;23;20096;-80
2022/12/14 09:32:16;;;;;;;18.58;9.90;;;;;;;-5.60;86.67;100424.59;6222268;22;20013;-78
2022/12/14 09:34:43;;;;;;;14.00;8.15;;;;;;;-5.56;87.33;100422.81;6222673;22;20017;-81
2022/12/14 09:37:11;;;;;;;13.65;7.90;;;;;;;-5.52;87.34;100428.06;6220247;23;20530;-81
2022/12/14 09:39:38;;;;;;;13.68;8.15;;;;;;;-5.49;87.23;100422.22;6221432;22;20020;-80
2022/12/14 09:42:26;;;;;;;14.73;8.10;;;;;;;-5.44;87.77;100424.53;6220030;23;20021;-79
2022/12/14 09:45:10;;;;;;;14.65;7.72;;;;;;;-5.37;87.86;100422.84;6221540;23;20411;-79
2022/12/14 09:47:47;;;;;;;15.70;8.90;;;;;;;-5.31;87.78;100423.34;6219812;23;20521;-79
2022/12/14 09:50:20;;;;;;;16.73;9.20;;;;;;;-5.26;88.22;100430.88;6219408;23;20017;-79
2022/12/14 09:52:54;;;;;;;17.10;9.15;;;;;;;-5.20;88.09;100420.97;6220313;22;20033;-80
2022/12/14 09:55:34;;;;;;;18.85;9.25;;;;;;;-5.15;87.71;100426.63;6220262;23;20347;-79
2022/12/14 09:58:11;;;;;;;17.52;8.45;;;;;;;-5.11;87.45;100416.31;6220650;23;20044;-79
2022/12/14 10:00:43;;;;;;;18.30;8.98;;;;;;;-5.07;87.50;100423.09;6220452;23;20013;-80
2022/12/14 10:03:34;;;;;;;19.15;10.00;;;;;;;-5.00;87.55;100422.47;6220357;23;20010;-80
2022/12/14 10:06:27;;;;;;;15.85;9.27;;;;;;;-4.93;87.34;100424.47;6194955;23;20025;-80
2022/12/14 10:09:23;;;;;;;17.10;9.55;;;;;;;-4.88;87.25;100416.41;6221425;22;20045;-80
2022/12/14 10:12:26;;;;;;;17.40;9.90;;;;;;;-4.83;87.21;100418.72;6180119;23;20068;-79
2022/12/14 10:15:30;;;;;;;22.15;11.25;;;;;;;-4.76;86.84;100421.44;6220758;22;20017;-80
2022/12/14 10:18:00;;;;;;;20.02;10.18;;;;;;;-4.70;86.86;100417.47;6218755;23;20039;-79
2022/12/14 10:20:47;;;;;;;23.73;11.40;;;;;;;-4.65;86.65;100416.44;6220130;23;20013;-80
2022/12/14 10:23:19;;;;;;;16.88;9.60;;;;;;;-4.62;86.46;100407.97;6244274;22;20092;-79
2022/12/14 10:25:54;;;;;;;19.90;10.55;;;;;;;-4.57;86.53;100408.44;6220935;22;20013;-80
2022/12/14 10:28:23;;;;;;;19.30;10.23;;;;;;;-4.53;86.51;100411.84;6220893;23;20447;-80
2022/12/14 10:30:53;;;;;;;21.23;10.13;;;;;;;-4.49;86.43;100406.72;6218789;23;20017;-80
2022/12/14 10:33:25;;;;;;;20.25;10.48;;;;;;;-4.44;86.45;100399.41;6221441;22;20114;-80
2022/12/14 10:35:58;;;;;;;22.20;10.88;;;;;;;-4.38;86.46;100398.00;6219186;23;20437;-80
2022/12/14 10:38:51;;;;;;;18.02;10.48;;;;;;;-4.31;86.28;100397.34;6245132;22;20047;-80
2022/12/14 10:41:26;;;;;;;19.27;10.95;;;;;;;-4.27;86.09;100395.56;6218995;23;20013;-79
2022/12/14 10:44:15;;;;;;;30.73;11.75;;;;;;;-4.21;85.62;100390.84;6220896;22;20414;-80
2022/12/14 10:46:56;;;;;;;24.00;11.10;;;;;;;-4.17;85.85;100392.41;6218853;23;20028;-80
2022/12/14 10:49:40;;;;;;;19.92;10.88;;;;;;;-4.13;85.67;100388.00;6220312;22;20099;-79
2022/12/14 10:52:15;;;;;;;23.33;11.30;;;;;;;-4.06;85.38;100384.78;6219038;23;20029;-79
2022/12/14 10:54:48;;;;;;;17.83;10.13;;;;;;;-4.03;85.00;100384.81;6218783;23;20026;-80
2022/12/14 10:57:25;;;;;;;19.98;10.73;;;;;;;-3.97;85.05;100379.31;6244055;22;20084;-78
2022/12/14 10:59:52;;;;;;;20.25;10.48;;;;;;;-3.91;84.66;100378.66;6219266;23;20021;-78
2022/12/14 11:02:39;;;;;;;16.17;9.98;;;;;;;-3.87;84.59;100371.66;6219728;23;20104;-79
2022/12/14 11:05:12;;;;;;;21.50;10.93;;;;;;;-3.81;84.40;100372.13;6218242;23;20017;-79
2022/12/14 11:07:42;;;;;;;17.85;10.43;;;;;;;-3.77;83.95;100372.91;6193566;23;20013;-80
2022/12/14 11:10:15;;;;;;;16.23;10.27;;;;;;;-3.72;84.11;100367.41;6220503;22;20017;-79
2022/12/14 11:12:59;;;;;;;20.75;10.23;;;;;;;-3.68;84.12;100365.63;6193883;23;20024;-80
2022/12/14 11:15:32;;;;;;;17.90;10.35;;;;;;;-3.67;83.61;100369.72;6220326;22;20463;-80
2022/12/14 11:18:23;;;;;;;20.58;10.75;;;;;;;-3.62;83.65;100371.28;6219620;22;20013;-79
2022/12/14 11:20:49;;;;;;;21.10;10.67;;;;;;;-3.58;83.37;100359.78;6218693;23;20017;-79
2022/12/14 11:23:25;;;;;;;20.67;10.00;;;;;;;-3.53;83.52;100364.69;6219890;23;20304;-79
2022/12/14 11:25:57;;;;;;;21.08;11.52;;;;;;;-3.49;83.30;100369.94;6220220;23;20020;-80
2022/12/14 11:28:35;;;;;;;20.08;10.68;;;;;;;-3.46;83.60;100369.22;6220214;22;20088;-79
2022/12/14 11:31:05;;;;;;;23.38;11.45;;;;;;;-3.42;83.44;100370.78;6220500;22;20057;-80
2022/12/14 11:33:40;;;;;;;21.98;10.73;;;;;;;-3.36;83.51;100374.56;6220080;22;20053;-80
2022/12/14 11:36:07;;;;;;;20.77;11.27;;;;;;;-3.33;83.31;100375.72;6219440;23;20096;-80
2022/12/14 11:38:34;;;;;;;19.05;10.63;;;;;;;-3.30;83.10;100372.41;6219857;22;20426;-80
2022/12/14 11:41:02;;;;;;;19.85;10.70;;;;;;;-3.27;83.29;100365.75;6220915;22;20095;-80
2022/12/14 11:43:37;;;;;;;23.08;10.30;;;;;;;-3.24;83.06;100373.59;6245705;22;20013;-80
2022/12/14 11:46:05;;;;;;;29.30;10.15;;;;;;;-3.19;82.91;100367.31;6221749;22;20021;-80
2022/12/14 11:48:35;;;;;;;18.77;10.65;;;;;;;-3.17;82.12;100368.47;6244479;22;20023;-80
2022/12/14 11:51:12;;;;;;;19.92;11.15;;;;;;;-3.14;82.44;100367.75;6222594;22;20019;-80
2022/12/14 11:53:40;;;;;;;22.40;10.57;;;;;;;-3.11;81.95;100372.25;6219982;23;20017;-78
2022/12/14 11:56:14;;;;;;;18.65;11.20;;;;;;;-3.03;81.97;100367.88;6221502;22;20018;-78